createdAt,value
2023-04-08T00:02:14.287Z,4.70
2023-04-08T00:04:41.442Z,4.53
2023-04-08T00:07:08.153Z,3.90
2023-04-08T00:09:34.802Z,4.20
2023-04-08T00:12:02.078Z,4.60
2023-04-08T00:14:28.673Z,4.35
2023-04-08T00:16:55.914Z,3.67
2023-04-08T00:19:22.731Z,3.70
2023-04-08T00:21:49.504Z,3.78
2023-04-08T00:24:16.738Z,3.70
2023-04-08T00:26:43.275Z,3.80
2023-04-08T00:29:10.076Z,4.07
2023-04-08T00:31:37.287Z,4.00
2023-04-08T00:34:04.925Z,3.70
2023-04-08T00:36:31.563Z,3.33
2023-04-08T00:38:58.227Z,4.22
2023-04-08T00:41:24.845Z,4.90
2023-04-08T00:43:52.577Z,4.60
2023-04-08T00:46:19.460Z,5.00
2023-04-08T00:48:46.315Z,5.00
2023-04-08T00:51:13.239Z,3.95
2023-04-08T00:53:40.082Z,4.55
2023-04-08T00:56:06.608Z,3.57
2023-04-08T00:58:33.360Z,4.13
2023-04-08T01:01:06.312Z,3.90
2023-04-08T01:03:54.716Z,4.13
2023-04-08T01:06:42.458Z,3.83
2023-04-08T01:09:11.675Z,3.83
2023-04-08T01:11:43.854Z,3.63
2023-04-08T01:14:16.460Z,3.97
2023-04-08T01:16:45.325Z,3.60
2023-04-08T01:19:37.888Z,4.30
2023-04-08T01:22:37.372Z,4.13
2023-04-08T01:25:14.978Z,3.65
2023-04-08T01:27:43.354Z,3.75
2023-04-08T01:30:11.003Z,4.20
2023-04-08T01:32:39.866Z,3.80
2023-04-08T01:35:08.068Z,3.67
2023-04-08T01:37:35.937Z,3.83
2023-04-08T01:40:03.364Z,4.05
2023-04-08T01:42:31.636Z,4.13
2023-04-08T01:44:59.549Z,3.83
2023-04-08T01:47:26.856Z,5.00
2023-04-08T01:49:54.034Z,3.90
2023-04-08T01:52:22.593Z,4.43
2023-04-08T01:54:49.675Z,3.97
2023-04-08T01:57:23.335Z,4.25
2023-04-08T01:59:53.165Z,4.17
2023-04-08T02:02:22.837Z,4.20
2023-04-08T02:04:50.043Z,4.40
2023-04-08T02:07:18.015Z,4.07
2023-04-08T02:09:44.684Z,4.50
2023-04-08T02:12:11.916Z,4.30
2023-04-08T02:14:38.939Z,4.38
2023-04-08T02:17:24.320Z,3.95
2023-04-08T02:20:03.811Z,4.25
2023-04-08T02:22:48.186Z,3.88
2023-04-08T02:25:16.958Z,4.43
2023-04-08T02:27:46.337Z,4.20
2023-04-08T02:30:13.995Z,4.40
2023-04-08T02:32:42.676Z,3.83
2023-04-08T02:35:12.165Z,4.68
2023-04-08T02:37:39.270Z,4.00
2023-04-08T02:40:26.455Z,4.20
2023-04-08T02:42:54.134Z,4.50
2023-04-08T02:45:21.589Z,4.22
2023-04-08T02:47:48.753Z,4.47
2023-04-08T02:50:15.690Z,4.00
2023-04-08T02:52:43.954Z,3.78
2023-04-08T02:55:10.795Z,4.18
2023-04-08T02:57:39.503Z,4.18
2023-04-08T03:00:07.427Z,3.60
2023-04-08T03:02:34.109Z,4.53
2023-04-08T03:05:01.300Z,3.95
2023-04-08T03:07:28.044Z,4.53
2023-04-08T03:09:55.676Z,4.57
2023-04-08T03:12:22.792Z,4.00
2023-04-08T03:14:50.739Z,4.53
2023-04-08T03:17:17.549Z,4.28
2023-04-08T03:19:44.151Z,4.65
2023-04-08T03:22:10.768Z,4.55
2023-04-08T03:24:37.843Z,4.28
2023-04-08T03:27:04.489Z,4.73
2023-04-08T03:29:31.210Z,4.40
2023-04-08T03:31:58.079Z,4.70
2023-04-08T03:34:24.863Z,4.65
2023-04-08T03:36:51.452Z,4.60
2023-04-08T03:39:18.039Z,4.03
2023-04-08T03:41:44.652Z,4.30
2023-04-08T03:44:11.265Z,4.45
2023-04-08T03:46:38.410Z,4.10
2023-04-08T03:49:05.071Z,3.63
2023-04-08T03:51:32.132Z,4.20
2023-04-08T03:53:59.748Z,4.03
2023-04-08T03:56:26.550Z,4.07
2023-04-08T03:58:53.281Z,3.53
2023-04-08T04:01:19.925Z,3.92
2023-04-08T04:03:46.662Z,3.77
2023-04-08T04:06:13.339Z,4.20
2023-04-08T04:08:40.027Z,4.53
2023-04-08T04:11:06.741Z,4.05
2023-04-08T04:13:33.326Z,3.67
2023-04-08T04:15:59.948Z,3.30
2023-04-08T04:18:26.652Z,3.15
2023-04-08T04:20:53.331Z,3.78
2023-04-08T04:23:19.988Z,3.58
2023-04-08T04:25:46.802Z,3.78
2023-04-08T04:28:13.839Z,3.90
2023-04-08T04:30:40.649Z,4.20
2023-04-08T04:33:07.953Z,3.80
2023-04-08T04:35:34.836Z,3.95
2023-04-08T04:38:01.783Z,4.00
2023-04-08T04:40:28.524Z,3.73
2023-04-08T04:42:55.885Z,3.78
2023-04-08T04:45:22.802Z,4.55
2023-04-08T04:47:49.551Z,4.45
2023-04-08T04:50:16.190Z,4.07
2023-04-08T04:52:42.839Z,4.27
2023-04-08T04:55:09.932Z,3.92
2023-04-08T04:57:36.568Z,5.00
2023-04-08T05:00:05.341Z,4.20
2023-04-08T05:02:32.558Z,4.28
2023-04-08T05:04:59.581Z,4.07
2023-04-08T05:07:26.317Z,4.40
2023-04-08T05:09:54.614Z,3.95
2023-04-08T05:12:21.336Z,3.92
2023-04-08T05:14:47.954Z,4.47
2023-04-08T05:17:14.563Z,3.87
2023-04-08T05:19:41.068Z,4.45
2023-04-08T05:22:07.770Z,4.30
2023-04-08T05:24:34.254Z,4.10
2023-04-08T05:27:01.480Z,4.25
2023-04-08T05:29:28.337Z,4.60
2023-04-08T05:31:56.717Z,3.92
2023-04-08T05:34:23.473Z,4.38
2023-04-08T05:36:52.977Z,4.00
2023-04-08T05:39:20.536Z,4.45
2023-04-08T05:41:49.918Z,3.97
2023-04-08T05:44:16.627Z,3.97
2023-04-08T05:46:43.397Z,4.40
2023-04-08T05:49:10.117Z,4.57
2023-04-08T05:51:36.692Z,5.63
2023-04-08T05:54:03.460Z,3.90
2023-04-08T05:56:32.888Z,4.22
2023-04-08T05:58:59.893Z,4.40
2023-04-08T06:01:26.977Z,4.53
2023-04-08T06:03:57.063Z,4.07
2023-04-08T06:06:26.306Z,4.50
2023-04-08T06:08:53.122Z,4.38
2023-04-08T06:11:22.803Z,4.88
2023-04-08T06:13:49.465Z,4.50
2023-04-08T06:16:20.324Z,5.43
2023-04-08T06:18:50.474Z,5.03
2023-04-08T06:21:17.431Z,5.28
2023-04-08T06:23:44.210Z,5.32
2023-04-08T06:26:13.639Z,5.55
2023-04-08T06:28:42.483Z,5.32
2023-04-08T06:31:10.599Z,5.10
2023-04-08T06:33:40.429Z,5.30
2023-04-08T06:36:08.596Z,5.28
2023-04-08T06:38:35.380Z,5.80
2023-04-08T06:41:03.677Z,5.90
2023-04-08T06:43:31.036Z,5.63
2023-04-08T06:45:58.128Z,5.43
2023-04-08T06:48:33.171Z,5.25
2023-04-08T06:51:01.504Z,5.88
2023-04-08T06:53:32.924Z,6.05
2023-04-08T06:56:03.040Z,6.17
2023-04-08T06:58:30.107Z,5.22
2023-04-08T07:00:57.373Z,5.68
2023-04-08T07:03:26.393Z,5.35
2023-04-08T07:06:06.690Z,5.72
2023-04-08T07:08:33.279Z,6.33
2023-04-08T07:11:00.012Z,6.38
2023-04-08T07:13:26.841Z,6.30
2023-04-08T07:15:53.529Z,6.30
2023-04-08T07:18:21.437Z,6.10
2023-04-08T07:20:53.987Z,5.50
2023-04-08T07:23:21.405Z,6.97
2023-04-08T07:25:50.714Z,6.68
2023-04-08T07:28:17.606Z,6.93
2023-04-08T07:30:44.189Z,8.10
2023-04-08T07:33:10.887Z,6.60
2023-04-08T07:35:38.064Z,6.53
2023-04-08T07:38:16.923Z,6.80
2023-04-08T07:40:46.067Z,6.53
2023-04-08T07:43:12.991Z,7.22
2023-04-08T07:45:42.564Z,6.33
2023-04-08T07:48:10.979Z,7.05
2023-04-08T07:51:09.455Z,6.80
2023-04-08T07:53:37.467Z,6.57
2023-04-08T07:56:12.118Z,7.22
2023-04-08T07:58:50.082Z,6.93
2023-04-08T08:01:22.046Z,6.95
2023-04-08T08:03:52.807Z,6.28
2023-04-08T08:06:27.236Z,6.30
2023-04-08T08:08:54.636Z,6.05
2023-04-08T08:11:46.386Z,6.13
2023-04-08T08:16:04.626Z,6.28
2023-04-08T08:17:31.835Z,5.65
2023-04-08T08:20:12.758Z,4.90
2023-04-08T08:22:47.187Z,5.70
2023-04-08T08:25:45.364Z,5.17
2023-04-08T08:29:36.671Z,5.53
2023-04-08T08:32:18.055Z,5.35
2023-04-08T08:38:51.375Z,5.50
2023-04-08T08:41:56.990Z,5.50
2023-04-08T09:02:32.638Z,5.38
2023-04-08T09:05:24.724Z,5.68
2023-04-08T09:08:06.507Z,4.83
2023-04-08T09:11:12.603Z,4.68
2023-04-08T09:14:10.349Z,4.13
2023-04-08T09:16:43.080Z,3.33
2023-04-08T09:19:36.486Z,4.05
2023-04-08T09:22:27.602Z,4.47
2023-04-08T09:25:25.012Z,4.25
2023-04-08T09:28:31.051Z,4.30
2023-04-08T09:32:06.661Z,4.60
2023-04-08T10:10:15.995Z,3.65
2023-04-08T10:20:39.913Z,4.28
2023-04-08T11:13:27.451Z,3.40
2023-04-08T11:17:24.912Z,3.80
2023-04-08T11:32:21.449Z,3.70
2023-04-08T11:35:10.203Z,3.63
2023-04-08T11:38:41.060Z,3.42
2023-04-08T11:46:01.458Z,3.55
2023-04-08T12:25:03.363Z,3.03
2023-04-08T12:27:40.638Z,3.38
2023-04-08T12:58:49.234Z,2.67
2023-04-08T13:01:16.583Z,2.87
2023-04-08T14:26:02.775Z,3.08
2023-04-08T14:33:33.760Z,2.50
2023-04-08T14:37:31.598Z,2.50
2023-04-08T14:40:15.027Z,2.40
2023-04-08T18:02:15.383Z,2.55
2023-04-08T19:30:25.021Z,4.05
2023-04-08T20:42:47.473Z,2.90
2023-04-08T21:22:35.192Z,3.20
2023-04-08T21:25:11.844Z,3.80
2023-04-08T21:27:48.513Z,3.30
2023-04-08T21:30:25.965Z,3.22
2023-04-08T21:32:55.926Z,3.95
2023-04-08T21:35:27.525Z,3.97
2023-04-08T21:42:20.094Z,3.22
2023-04-08T21:45:03.014Z,3.67
2023-04-08T21:47:44.009Z,3.67
2023-04-08T21:50:49.234Z,3.50
2023-04-08T21:53:20.416Z,3.60
2023-04-08T21:56:53.829Z,3.30
2023-04-08T21:59:45.484Z,3.83
2023-04-08T22:02:40.406Z,3.42
2023-04-08T22:06:31.123Z,3.67
2023-04-08T22:09:41.693Z,3.85
2023-04-08T22:12:57.124Z,4.20
2023-04-08T22:27:24.169Z,3.58
2023-04-08T22:29:56.356Z,3.90
2023-04-08T22:32:26.443Z,4.63
2023-04-08T22:34:56.773Z,4.75
2023-04-08T22:37:31.311Z,4.53
2023-04-08T22:40:23.505Z,4.95
2023-04-08T22:42:50.481Z,5.25
2023-04-08T22:45:17.259Z,4.57
2023-04-08T22:47:56.811Z,4.85
2023-04-08T22:50:24.101Z,4.90
2023-04-08T22:52:51.886Z,4.72
2023-04-08T22:55:26.912Z,4.70
2023-04-08T22:57:57.995Z,4.28
2023-04-08T23:00:25.280Z,4.88
2023-04-08T23:02:53.641Z,4.20
2023-04-08T23:05:26.759Z,4.75
2023-04-08T23:07:58.927Z,4.47
2023-04-08T23:10:25.912Z,3.80
2023-04-08T23:12:52.805Z,4.78
2023-04-08T23:15:19.892Z,4.37
2023-04-08T23:17:46.715Z,4.75
2023-04-08T23:20:13.550Z,4.22
2023-04-08T23:22:42.482Z,4.13
2023-04-08T23:25:09.907Z,4.55
2023-04-08T23:27:37.053Z,4.23
2023-04-08T23:30:19.239Z,4.15
2023-04-08T23:35:41.961Z,5.00
2023-04-08T23:38:10.734Z,4.35
2023-04-08T23:40:37.340Z,5.00
2023-04-08T23:43:04.135Z,5.20
2023-04-08T23:45:36.470Z,5.85
2023-04-08T23:48:08.858Z,5.55
2023-04-08T23:50:41.133Z,5.60
2023-04-08T23:53:09.985Z,5.60
2023-04-08T23:55:39.452Z,5.70
2023-04-08T23:58:06.120Z,5.72
